sensor_id;sensor_type;location;lat;lon;timestamp;P1;durP1;ratioP1;P2;durP2;ratioP2
54871;SDS011;43914;57.680;11.982;2022-12-07T00:01:20;10.72;;;4.65;;
54871;SDS011;43914;57.680;11.982;2022-12-07T00:03:55;11.83;;;4.78;;
54871;SDS011;43914;57.680;11.982;2022-12-07T00:06:25;13.25;;;5.60;;
54871;SDS011;43914;57.680;11.982;2022-12-07T00:08:52;11.43;;;4.50;;
54871;SDS011;43914;57.680;11.982;2022-12-07T00:11:20;11.77;;;5.40;;
54871;SDS011;43914;57.680;11.982;2022-12-07T00:13:50;12.18;;;5.03;;
54871;SDS011;43914;57.680;11.982;2022-12-07T00:16:21;12.55;;;5.20;;
54871;SDS011;43914;57.680;11.982;2022-12-07T00:18:51;12.37;;;4.40;;
54871;SDS011;43914;57.680;11.982;2022-12-07T00:21:18;9.63;;;4.00;;
54871;SDS011;43914;57.680;11.982;2022-12-07T00:23:54;11.12;;;4.50;;
54871;SDS011;43914;57.680;11.982;2022-12-07T00:26:26;11.83;;;5.22;;
54871;SDS011;43914;57.680;11.982;2022-12-07T00:28:56;9.68;;;4.45;;
54871;SDS011;43914;57.680;11.982;2022-12-07T00:31:26;10.53;;;4.55;;
54871;SDS011;43914;57.680;11.982;2022-12-07T00:33:56;12.13;;;5.22;;
54871;SDS011;43914;57.680;11.982;2022-12-07T00:36:24;13.32;;;5.90;;
54871;SDS011;43914;57.680;11.982;2022-12-07T00:38:51;12.80;;;4.72;;
54871;SDS011;43914;57.680;11.982;2022-12-07T00:41:18;11.63;;;5.00;;
54871;SDS011;43914;57.680;11.982;2022-12-07T00:43:48;13.90;;;5.33;;
54871;SDS011;43914;57.680;11.982;2022-12-07T00:46:15;13.00;;;4.83;;
54871;SDS011;43914;57.680;11.982;2022-12-07T00:48:43;11.63;;;5.00;;
54871;SDS011;43914;57.680;11.982;2022-12-07T00:51:09;12.28;;;4.72;;
54871;SDS011;43914;57.680;11.982;2022-12-07T00:53:39;10.95;;;4.55;;
54871;SDS011;43914;57.680;11.982;2022-12-07T00:56:07;11.80;;;4.97;;
54871;SDS011;43914;57.680;11.982;2022-12-07T00:58:34;11.60;;;4.72;;
54871;SDS011;43914;57.680;11.982;2022-12-07T01:01:01;10.85;;;4.45;;
54871;SDS011;43914;57.680;11.982;2022-12-07T01:03:29;10.03;;;4.35;;
54871;SDS011;43914;57.680;11.982;2022-12-07T01:05:56;9.43;;;4.03;;
54871;SDS011;43914;57.680;11.982;2022-12-07T01:08:23;12.65;;;4.03;;
54871;SDS011;43914;57.680;11.982;2022-12-07T01:11:01;10.38;;;3.90;;
54871;SDS011;43914;57.680;11.982;2022-12-07T01:13:30;11.38;;;4.03;;
54871;SDS011;43914;57.680;11.982;2022-12-07T01:15:58;10.40;;;4.12;;
54871;SDS011;43914;57.680;11.982;2022-12-07T01:18:27;10.50;;;4.22;;
54871;SDS011;43914;57.680;11.982;2022-12-07T01:21:01;11.10;;;4.08;;
54871;SDS011;43914;57.680;11.982;2022-12-07T01:23:33;14.93;;;5.03;;
54871;SDS011;43914;57.680;11.982;2022-12-07T01:26:02;11.83;;;4.70;;
54871;SDS011;43914;57.680;11.982;2022-12-07T01:28:31;10.05;;;4.00;;
54871;SDS011;43914;57.680;11.982;2022-12-07T01:30:59;11.68;;;4.72;;
54871;SDS011;43914;57.680;11.982;2022-12-07T01:33:29;11.97;;;4.97;;
54871;SDS011;43914;57.680;11.982;2022-12-07T01:36:05;11.15;;;4.10;;
54871;SDS011;43914;57.680;11.982;2022-12-07T01:38:35;11.73;;;4.65;;
54871;SDS011;43914;57.680;11.982;2022-12-07T01:41:01;11.50;;;4.27;;
54871;SDS011;43914;57.680;11.982;2022-12-07T01:43:29;13.13;;;4.40;;
54871;SDS011;43914;57.680;11.982;2022-12-07T01:45:57;10.93;;;4.30;;
54871;SDS011;43914;57.680;11.982;2022-12-07T01:48:38;11.38;;;4.20;;
54871;SDS011;43914;57.680;11.982;2022-12-07T01:51:08;9.68;;;3.47;;
54871;SDS011;43914;57.680;11.982;2022-12-07T01:53:36;8.78;;;3.55;;
54871;SDS011;43914;57.680;11.982;2022-12-07T01:56:07;9.43;;;3.65;;
54871;SDS011;43914;57.680;11.982;2022-12-07T01:58:36;10.72;;;3.98;;
54871;SDS011;43914;57.680;11.982;2022-12-07T02:01:03;9.65;;;3.90;;
54871;SDS011;43914;57.680;11.982;2022-12-07T02:03:39;10.63;;;4.15;;
54871;SDS011;43914;57.680;11.982;2022-12-07T02:06:08;11.63;;;4.20;;
54871;SDS011;43914;57.680;11.982;2022-12-07T02:08:38;9.98;;;3.75;;
54871;SDS011;43914;57.680;11.982;2022-12-07T02:11:05;10.75;;;3.37;;
54871;SDS011;43914;57.680;11.982;2022-12-07T02:13:33;9.45;;;3.60;;
54871;SDS011;43914;57.680;11.982;2022-12-07T02:21:46;8.98;;;3.30;;
54871;SDS011;43914;57.680;11.982;2022-12-07T02:30:20;11.57;;;4.15;;
54871;SDS011;43914;57.680;11.982;2022-12-07T02:36:06;11.10;;;3.83;;
54871;SDS011;43914;57.680;11.982;2022-12-07T02:37:59;8.15;;;3.33;;
54871;SDS011;43914;57.680;11.982;2022-12-07T02:40:36;7.92;;;3.08;;
54871;SDS011;43914;57.680;11.982;2022-12-07T02:43:24;10.38;;;3.33;;
54871;SDS011;43914;57.680;11.982;2022-12-07T02:45:55;7.45;;;2.80;;
54871;SDS011;43914;57.680;11.982;2022-12-07T02:48:25;11.12;;;3.52;;
54871;SDS011;43914;57.680;11.982;2022-12-07T02:50:53;11.18;;;3.92;;
54871;SDS011;43914;57.680;11.982;2022-12-07T02:53:36;9.83;;;3.65;;
54871;SDS011;43914;57.680;11.982;2022-12-07T02:56:12;12.40;;;3.90;;
54871;SDS011;43914;57.680;11.982;2022-12-07T02:58:49;10.93;;;3.40;;
54871;SDS011;43914;57.680;11.982;2022-12-07T03:18:46;9.58;;;4.20;;
54871;SDS011;43914;57.680;11.982;2022-12-07T03:21:23;13.85;;;4.00;;
54871;SDS011;43914;57.680;11.982;2022-12-07T03:23:54;11.03;;;4.03;;
54871;SDS011;43914;57.680;11.982;2022-12-07T03:26:24;11.48;;;4.15;;
54871;SDS011;43914;57.680;11.982;2022-12-07T03:29:01;11.93;;;4.40;;
54871;SDS011;43914;57.680;11.982;2022-12-07T03:31:49;11.38;;;4.12;;
54871;SDS011;43914;57.680;11.982;2022-12-07T03:34:24;12.10;;;4.80;;
54871;SDS011;43914;57.680;11.982;2022-12-07T03:36:53;10.13;;;3.80;;
54871;SDS011;43914;57.680;11.982;2022-12-07T03:42:20;10.43;;;3.77;;
54871;SDS011;43914;57.680;11.982;2022-12-07T03:44:46;11.60;;;4.07;;
54871;SDS011;43914;57.680;11.982;2022-12-07T03:52:59;11.00;;;3.58;;
54871;SDS011;43914;57.680;11.982;2022-12-07T03:55:30;10.45;;;4.03;;
54871;SDS011;43914;57.680;11.982;2022-12-07T03:58:07;10.08;;;4.10;;
54871;SDS011;43914;57.680;11.982;2022-12-07T04:00:41;10.23;;;3.58;;
54871;SDS011;43914;57.680;11.982;2022-12-07T04:03:09;8.03;;;3.62;;
54871;SDS011;43914;57.680;11.982;2022-12-07T04:05:35;9.88;;;3.75;;
54871;SDS011;43914;57.680;11.982;2022-12-07T04:08:02;7.87;;;2.72;;
54871;SDS011;43914;57.680;11.982;2022-12-07T04:10:28;8.50;;;2.95;;
54871;SDS011;43914;57.680;11.982;2022-12-07T04:12:54;10.27;;;3.27;;
54871;SDS011;43914;57.680;11.982;2022-12-07T04:15:21;12.43;;;3.55;;
54871;SDS011;43914;57.680;11.982;2022-12-07T04:17:47;10.03;;;3.67;;
54871;SDS011;43914;57.680;11.982;2022-12-07T04:20:13;8.10;;;3.30;;
54871;SDS011;43914;57.680;11.982;2022-12-07T04:22:39;9.87;;;3.47;;
54871;SDS011;43914;57.680;11.982;2022-12-07T04:25:06;9.20;;;3.25;;
54871;SDS011;43914;57.680;11.982;2022-12-07T04:27:32;10.03;;;2.98;;
54871;SDS011;43914;57.680;11.982;2022-12-07T04:29:58;8.23;;;3.12;;
54871;SDS011;43914;57.680;11.982;2022-12-07T04:32:24;9.23;;;3.10;;
54871;SDS011;43914;57.680;11.982;2022-12-07T04:34:50;9.87;;;3.10;;
54871;SDS011;43914;57.680;11.982;2022-12-07T04:37:16;10.32;;;2.85;;
54871;SDS011;43914;57.680;11.982;2022-12-07T04:39:42;7.63;;;2.57;;
54871;SDS011;43914;57.680;11.982;2022-12-07T04:42:10;8.05;;;3.02;;
54871;SDS011;43914;57.680;11.982;2022-12-07T04:44:38;8.55;;;2.90;;
54871;SDS011;43914;57.680;11.982;2022-12-07T04:47:04;8.55;;;2.70;;
54871;SDS011;43914;57.680;11.982;2022-12-07T04:49:30;10.40;;;2.83;;
54871;SDS011;43914;57.680;11.982;2022-12-07T04:51:56;7.80;;;2.40;;
54871;SDS011;43914;57.680;11.982;2022-12-07T04:54:22;7.83;;;2.47;;
54871;SDS011;43914;57.680;11.982;2022-12-07T04:56:49;6.75;;;2.10;;
54871;SDS011;43914;57.680;11.982;2022-12-07T04:59:15;8.07;;;2.60;;
54871;SDS011;43914;57.680;11.982;2022-12-07T05:01:43;8.50;;;2.40;;
54871;SDS011;43914;57.680;11.982;2022-12-07T05:04:09;6.80;;;1.90;;
54871;SDS011;43914;57.680;11.982;2022-12-07T05:06:35;6.53;;;1.67;;
54871;SDS011;43914;57.680;11.982;2022-12-07T05:09:02;6.25;;;1.67;;
54871;SDS011;43914;57.680;11.982;2022-12-07T05:11:28;8.10;;;1.98;;
54871;SDS011;43914;57.680;11.982;2022-12-07T05:14:04;6.03;;;1.50;;
54871;SDS011;43914;57.680;11.982;2022-12-07T05:16:43;4.90;;;1.47;;
54871;SDS011;43914;57.680;11.982;2022-12-07T05:19:11;6.60;;;1.67;;
54871;SDS011;43914;57.680;11.982;2022-12-07T05:21:37;5.50;;;1.55;;
54871;SDS011;43914;57.680;11.982;2022-12-07T05:24:04;6.33;;;1.60;;
54871;SDS011;43914;57.680;11.982;2022-12-07T05:26:34;6.95;;;1.40;;
54871;SDS011;43914;57.680;11.982;2022-12-07T05:29:01;8.70;;;1.50;;
54871;SDS011;43914;57.680;11.982;2022-12-07T05:31:27;7.95;;;1.60;;
54871;SDS011;43914;57.680;11.982;2022-12-07T05:33:54;6.00;;;1.70;;
54871;SDS011;43914;57.680;11.982;2022-12-07T05:36:20;7.15;;;1.70;;
54871;SDS011;43914;57.680;11.982;2022-12-07T05:38:46;6.42;;;1.70;;
54871;SDS011;43914;57.680;11.982;2022-12-07T05:41:15;9.60;;;1.80;;
54871;SDS011;43914;57.680;11.982;2022-12-07T05:44:02;7.87;;;1.60;;
54871;SDS011;43914;57.680;11.982;2022-12-07T05:46:29;7.22;;;1.70;;
54871;SDS011;43914;57.680;11.982;2022-12-07T05:48:55;7.60;;;1.83;;
54871;SDS011;43914;57.680;11.982;2022-12-07T05:51:21;7.90;;;2.13;;
54871;SDS011;43914;57.680;11.982;2022-12-07T05:53:47;8.73;;;2.10;;
54871;SDS011;43914;57.680;11.982;2022-12-07T05:56:13;8.00;;;2.20;;
54871;SDS011;43914;57.680;11.982;2022-12-07T05:58:39;6.50;;;1.90;;
54871;SDS011;43914;57.680;11.982;2022-12-07T06:01:24;6.53;;;1.87;;
54871;SDS011;43914;57.680;11.982;2022-12-07T06:03:50;6.35;;;1.72;;
54871;SDS011;43914;57.680;11.982;2022-12-07T06:06:16;6.20;;;1.67;;
54871;SDS011;43914;57.680;11.982;2022-12-07T06:08:42;6.47;;;1.72;;
54871;SDS011;43914;57.680;11.982;2022-12-07T06:11:08;8.07;;;2.20;;
54871;SDS011;43914;57.680;11.982;2022-12-07T06:16:18;6.83;;;1.73;;
54871;SDS011;43914;57.680;11.982;2022-12-07T06:18:44;9.23;;;2.25;;
54871;SDS011;43914;57.680;11.982;2022-12-07T06:21:11;11.00;;;3.55;;
54871;SDS011;43914;57.680;11.982;2022-12-07T06:23:37;9.75;;;2.35;;
54871;SDS011;43914;57.680;11.982;2022-12-07T06:26:03;7.00;;;2.33;;
54871;SDS011;43914;57.680;11.982;2022-12-07T06:28:29;7.25;;;2.50;;
54871;SDS011;43914;57.680;11.982;2022-12-07T06:30:59;8.70;;;2.65;;
54871;SDS011;43914;57.680;11.982;2022-12-07T06:33:26;6.60;;;2.30;;
54871;SDS011;43914;57.680;11.982;2022-12-07T06:35:53;8.83;;;2.60;;
54871;SDS011;43914;57.680;11.982;2022-12-07T06:38:20;9.13;;;2.77;;
54871;SDS011;43914;57.680;11.982;2022-12-07T06:40:46;10.50;;;2.85;;
54871;SDS011;43914;57.680;11.982;2022-12-07T06:43:13;7.75;;;2.55;;
54871;SDS011;43914;57.680;11.982;2022-12-07T06:45:40;6.60;;;2.10;;
54871;SDS011;43914;57.680;11.982;2022-12-07T06:48:06;7.00;;;2.12;;
54871;SDS011;43914;57.680;11.982;2022-12-07T06:50:32;6.97;;;2.30;;
54871;SDS011;43914;57.680;11.982;2022-12-07T06:52:58;8.18;;;2.40;;
54871;SDS011;43914;57.680;11.982;2022-12-07T06:55:24;6.57;;;2.07;;
54871;SDS011;43914;57.680;11.982;2022-12-07T06:57:50;7.33;;;2.30;;
54871;SDS011;43914;57.680;11.982;2022-12-07T07:00:16;7.00;;;2.00;;
54871;SDS011;43914;57.680;11.982;2022-12-07T07:02:43;6.50;;;1.80;;
54871;SDS011;43914;57.680;11.982;2022-12-07T07:05:09;6.33;;;1.90;;
54871;SDS011;43914;57.680;11.982;2022-12-07T07:07:35;7.20;;;1.90;;
54871;SDS011;43914;57.680;11.982;2022-12-07T07:10:01;5.70;;;1.77;;
54871;SDS011;43914;57.680;11.982;2022-12-07T07:12:27;7.55;;;2.02;;
54871;SDS011;43914;57.680;11.982;2022-12-07T07:14:54;6.78;;;1.87;;
54871;SDS011;43914;57.680;11.982;2022-12-07T07:17:19;5.93;;;1.60;;
54871;SDS011;43914;57.680;11.982;2022-12-07T07:19:45;8.10;;;1.97;;
54871;SDS011;43914;57.680;11.982;2022-12-07T07:22:11;5.63;;;1.60;;
54871;SDS011;43914;57.680;11.982;2022-12-07T07:24:37;6.78;;;2.10;;
54871;SDS011;43914;57.680;11.982;2022-12-07T07:27:03;6.20;;;1.70;;
54871;SDS011;43914;57.680;11.982;2022-12-07T07:29:29;6.63;;;1.80;;
54871;SDS011;43914;57.680;11.982;2022-12-07T07:31:55;5.83;;;1.80;;
54871;SDS011;43914;57.680;11.982;2022-12-07T07:34:21;7.17;;;1.67;;
54871;SDS011;43914;57.680;11.982;2022-12-07T07:36:47;6.13;;;1.77;;
54871;SDS011;43914;57.680;11.982;2022-12-07T07:39:13;9.47;;;2.33;;
54871;SDS011;43914;57.680;11.982;2022-12-07T07:41:39;5.80;;;1.60;;
54871;SDS011;43914;57.680;11.982;2022-12-07T07:44:05;6.13;;;1.70;;
54871;SDS011;43914;57.680;11.982;2022-12-07T07:46:30;7.93;;;1.67;;
54871;SDS011;43914;57.680;11.982;2022-12-07T07:48:58;6.10;;;1.60;;
54871;SDS011;43914;57.680;11.982;2022-12-07T07:51:24;6.53;;;1.60;;
54871;SDS011;43914;57.680;11.982;2022-12-07T07:53:50;5.50;;;1.60;;
54871;SDS011;43914;57.680;11.982;2022-12-07T07:56:19;5.33;;;1.50;;
54871;SDS011;43914;57.680;11.982;2022-12-07T07:58:45;4.57;;;1.40;;
54871;SDS011;43914;57.680;11.982;2022-12-07T08:01:11;7.27;;;2.00;;
54871;SDS011;43914;57.680;11.982;2022-12-07T08:03:38;6.47;;;1.98;;
54871;SDS011;43914;57.680;11.982;2022-12-07T08:06:05;7.03;;;1.90;;
54871;SDS011;43914;57.680;11.982;2022-12-07T08:08:31;7.67;;;2.20;;
54871;SDS011;43914;57.680;11.982;2022-12-07T08:10:57;8.33;;;1.80;;
54871;SDS011;43914;57.680;11.982;2022-12-07T08:13:25;9.25;;;2.77;;
54871;SDS011;43914;57.680;11.982;2022-12-07T08:15:51;9.33;;;2.58;;
54871;SDS011;43914;57.680;11.982;2022-12-07T08:18:17;6.95;;;2.08;;
54871;SDS011;43914;57.680;11.982;2022-12-07T08:20:45;6.92;;;2.10;;
54871;SDS011;43914;57.680;11.982;2022-12-07T08:23:11;5.78;;;1.72;;
54871;SDS011;43914;57.680;11.982;2022-12-07T08:25:38;7.03;;;2.10;;
54871;SDS011;43914;57.680;11.982;2022-12-07T08:28:04;7.67;;;2.30;;
54871;SDS011;43914;57.680;11.982;2022-12-07T08:30:32;6.53;;;2.40;;
54871;SDS011;43914;57.680;11.982;2022-12-07T08:32:58;7.60;;;2.47;;
54871;SDS011;43914;57.680;11.982;2022-12-07T08:35:24;6.33;;;1.77;;
54871;SDS011;43914;57.680;11.982;2022-12-07T08:37:51;6.37;;;1.82;;
54871;SDS011;43914;57.680;11.982;2022-12-07T08:40:17;6.90;;;1.77;;
54871;SDS011;43914;57.680;11.982;2022-12-07T08:42:50;6.75;;;2.00;;
54871;SDS011;43914;57.680;11.982;2022-12-07T08:45:17;6.50;;;2.10;;
54871;SDS011;43914;57.680;11.982;2022-12-07T08:50:25;5.45;;;1.57;;
54871;SDS011;43914;57.680;11.982;2022-12-07T08:52:52;6.10;;;1.70;;
54871;SDS011;43914;57.680;11.982;2022-12-07T08:55:20;5.10;;;1.72;;
54871;SDS011;43914;57.680;11.982;2022-12-07T08:57:47;7.33;;;1.70;;
54871;SDS011;43914;57.680;11.982;2022-12-07T09:00:13;8.45;;;1.87;;
54871;SDS011;43914;57.680;11.982;2022-12-07T09:02:46;5.42;;;1.60;;
54871;SDS011;43914;57.680;11.982;2022-12-07T09:05:10;6.47;;;1.60;;
54871;SDS011;43914;57.680;11.982;2022-12-07T09:07:37;5.50;;;1.47;;
54871;SDS011;43914;57.680;11.982;2022-12-07T09:10:04;7.37;;;1.47;;
54871;SDS011;43914;57.680;11.982;2022-12-07T09:12:31;4.65;;;1.47;;
54871;SDS011;43914;57.680;11.982;2022-12-07T09:14:57;5.93;;;1.67;;
54871;SDS011;43914;57.680;11.982;2022-12-07T09:17:25;5.97;;;1.57;;
54871;SDS011;43914;57.680;11.982;2022-12-07T09:19:52;4.10;;;1.40;;
54871;SDS011;43914;57.680;11.982;2022-12-07T09:22:18;4.70;;;1.70;;
54871;SDS011;43914;57.680;11.982;2022-12-07T09:24:44;5.63;;;1.60;;
54871;SDS011;43914;57.680;11.982;2022-12-07T09:27:11;4.85;;;1.42;;
54871;SDS011;43914;57.680;11.982;2022-12-07T09:29:37;5.70;;;1.65;;
54871;SDS011;43914;57.680;11.982;2022-12-07T09:32:04;7.95;;;1.70;;
54871;SDS011;43914;57.680;11.982;2022-12-07T09:34:31;6.12;;;1.72;;
54871;SDS011;43914;57.680;11.982;2022-12-07T09:36:57;4.75;;;1.47;;
54871;SDS011;43914;57.680;11.982;2022-12-07T09:39:26;6.10;;;1.60;;
54871;SDS011;43914;57.680;11.982;2022-12-07T09:41:52;5.08;;;1.42;;
54871;SDS011;43914;57.680;11.982;2022-12-07T09:44:23;5.12;;;1.60;;
54871;SDS011;43914;57.680;11.982;2022-12-07T09:46:52;5.35;;;1.47;;
54871;SDS011;43914;57.680;11.982;2022-12-07T09:49:21;6.00;;;1.55;;
54871;SDS011;43914;57.680;11.982;2022-12-07T09:52:02;5.53;;;1.67;;
54871;SDS011;43914;57.680;11.982;2022-12-07T09:54:40;6.45;;;1.60;;
54871;SDS011;43914;57.680;11.982;2022-12-07T09:59:40;6.75;;;1.70;;
54871;SDS011;43914;57.680;11.982;2022-12-07T10:02:20;6.25;;;1.60;;
54871;SDS011;43914;57.680;11.982;2022-12-07T10:05:01;6.65;;;1.55;;
54871;SDS011;43914;57.680;11.982;2022-12-07T10:07:34;6.28;;;1.85;;
54871;SDS011;43914;57.680;11.982;2022-12-07T10:10:02;6.60;;;1.60;;
54871;SDS011;43914;57.680;11.982;2022-12-07T10:12:30;6.62;;;1.60;;
54871;SDS011;43914;57.680;11.982;2022-12-07T10:14:59;4.20;;;1.37;;
54871;SDS011;43914;57.680;11.982;2022-12-07T10:25:31;7.20;;;1.80;;
54871;SDS011;43914;57.680;11.982;2022-12-07T10:31:17;8.35;;;2.02;;
54871;SDS011;43914;57.680;11.982;2022-12-07T10:33:37;7.47;;;1.90;;
54871;SDS011;43914;57.680;11.982;2022-12-07T10:36:34;6.20;;;1.60;;
54871;SDS011;43914;57.680;11.982;2022-12-07T10:39:11;7.67;;;1.70;;
54871;SDS011;43914;57.680;11.982;2022-12-07T10:42:02;9.15;;;1.80;;
54871;SDS011;43914;57.680;11.982;2022-12-07T10:44:33;7.45;;;2.00;;
54871;SDS011;43914;57.680;11.982;2022-12-07T10:58:31;7.87;;;1.55;;
54871;SDS011;43914;57.680;11.982;2022-12-07T11:01:57;8.33;;;1.70;;
54871;SDS011;43914;57.680;11.982;2022-12-07T11:09:47;6.87;;;1.65;;
54871;SDS011;43914;57.680;11.982;2022-12-07T11:15:26;7.03;;;2.00;;
54871;SDS011;43914;57.680;11.982;2022-12-07T11:21:24;6.70;;;1.77;;
54871;SDS011;43914;57.680;11.982;2022-12-07T11:38:16;8.37;;;1.67;;
54871;SDS011;43914;57.680;11.982;2022-12-07T11:40:49;9.15;;;1.80;;
54871;SDS011;43914;57.680;11.982;2022-12-07T11:43:32;8.85;;;1.67;;
54871;SDS011;43914;57.680;11.982;2022-12-07T11:48:37;8.23;;;2.00;;
54871;SDS011;43914;57.680;11.982;2022-12-07T11:51:26;9.30;;;2.05;;
54871;SDS011;43914;57.680;11.982;2022-12-07T11:53:58;8.98;;;2.10;;
54871;SDS011;43914;57.680;11.982;2022-12-07T11:56:43;6.05;;;1.72;;
54871;SDS011;43914;57.680;11.982;2022-12-07T11:59:16;7.35;;;1.52;;
54871;SDS011;43914;57.680;11.982;2022-12-07T12:02:07;7.53;;;1.70;;
54871;SDS011;43914;57.680;11.982;2022-12-07T12:07:34;6.33;;;1.40;;
54871;SDS011;43914;57.680;11.982;2022-12-07T12:10:04;5.45;;;1.35;;
54871;SDS011;43914;57.680;11.982;2022-12-07T12:18:12;6.10;;;1.45;;
54871;SDS011;43914;57.680;11.982;2022-12-07T12:21:06;5.78;;;1.55;;
54871;SDS011;43914;57.680;11.982;2022-12-07T12:23:41;6.83;;;1.40;;
54871;SDS011;43914;57.680;11.982;2022-12-07T12:26:15;14.33;;;1.80;;
54871;SDS011;43914;57.680;11.982;2022-12-07T12:31:32;5.30;;;1.60;;
54871;SDS011;43914;57.680;11.982;2022-12-07T12:34:57;5.22;;;1.67;;
54871;SDS011;43914;57.680;11.982;2022-12-07T12:37:00;5.85;;;1.40;;
54871;SDS011;43914;57.680;11.982;2022-12-07T12:39:26;5.40;;;1.65;;
54871;SDS011;43914;57.680;11.982;2022-12-07T12:41:53;5.87;;;1.62;;
54871;SDS011;43914;57.680;11.982;2022-12-07T12:46:59;10.03;;;1.75;;
54871;SDS011;43914;57.680;11.982;2022-12-07T12:50:21;6.58;;;1.40;;
54871;SDS011;43914;57.680;11.982;2022-12-07T12:58:33;7.60;;;1.90;;
54871;SDS011;43914;57.680;11.982;2022-12-07T13:04:14;10.65;;;2.50;;
54871;SDS011;43914;57.680;11.982;2022-12-07T13:06:54;6.80;;;2.40;;
54871;SDS011;43914;57.680;11.982;2022-12-07T13:09:23;8.28;;;2.33;;
54871;SDS011;43914;57.680;11.982;2022-12-07T13:12:11;8.18;;;2.30;;
54871;SDS011;43914;57.680;11.982;2022-12-07T13:14:38;7.33;;;2.10;;
54871;SDS011;43914;57.680;11.982;2022-12-07T13:17:08;6.85;;;1.95;;
54871;SDS011;43914;57.680;11.982;2022-12-07T13:28:00;7.30;;;1.40;;
54871;SDS011;43914;57.680;11.982;2022-12-07T13:30:29;6.33;;;1.45;;
54871;SDS011;43914;57.680;11.982;2022-12-07T13:32:58;4.35;;;1.30;;
54871;SDS011;43914;57.680;11.982;2022-12-07T13:35:31;7.03;;;1.60;;
54871;SDS011;43914;57.680;11.982;2022-12-07T13:38:03;6.67;;;1.70;;
54871;SDS011;43914;57.680;11.982;2022-12-07T13:40:33;10.32;;;1.80;;
54871;SDS011;43914;57.680;11.982;2022-12-07T13:43:03;7.40;;;1.60;;
54871;SDS011;43914;57.680;11.982;2022-12-07T13:45:31;5.62;;;1.40;;
54871;SDS011;43914;57.680;11.982;2022-12-07T13:51:05;9.93;;;1.77;;
54871;SDS011;43914;57.680;11.982;2022-12-07T13:53:30;5.53;;;1.43;;
54871;SDS011;43914;57.680;11.982;2022-12-07T13:56:00;5.92;;;1.62;;
54871;SDS011;43914;57.680;11.982;2022-12-07T13:58:27;9.13;;;2.00;;
54871;SDS011;43914;57.680;11.982;2022-12-07T14:00:56;6.37;;;1.80;;
54871;SDS011;43914;57.680;11.982;2022-12-07T14:03:25;7.25;;;1.80;;
54871;SDS011;43914;57.680;11.982;2022-12-07T14:06:04;8.43;;;1.80;;
54871;SDS011;43914;57.680;11.982;2022-12-07T14:09:16;6.35;;;1.67;;
54871;SDS011;43914;57.680;11.982;2022-12-07T14:11:41;6.65;;;1.60;;
54871;SDS011;43914;57.680;11.982;2022-12-07T14:14:10;8.20;;;1.40;;
54871;SDS011;43914;57.680;11.982;2022-12-07T14:27:53;6.60;;;1.42;;
54871;SDS011;43914;57.680;11.982;2022-12-07T14:30:29;4.80;;;1.30;;
54871;SDS011;43914;57.680;11.982;2022-12-07T14:32:59;5.58;;;1.55;;
54871;SDS011;43914;57.680;11.982;2022-12-07T14:35:28;4.45;;;1.37;;
54871;SDS011;43914;57.680;11.982;2022-12-07T14:37:56;6.92;;;1.50;;
54871;SDS011;43914;57.680;11.982;2022-12-07T14:40:23;7.67;;;1.70;;
54871;SDS011;43914;57.680;11.982;2022-12-07T14:42:54;8.63;;;1.40;;
54871;SDS011;43914;57.680;11.982;2022-12-07T14:45:28;5.60;;;1.80;;
54871;SDS011;43914;57.680;11.982;2022-12-07T14:47:55;7.95;;;1.57;;
54871;SDS011;43914;57.680;11.982;2022-12-07T14:50:23;5.75;;;1.35;;
54871;SDS011;43914;57.680;11.982;2022-12-07T14:52:54;5.73;;;1.40;;
54871;SDS011;43914;57.680;11.982;2022-12-07T14:55:23;10.93;;;1.90;;
54871;SDS011;43914;57.680;11.982;2022-12-07T14:57:52;6.65;;;1.52;;
54871;SDS011;43914;57.680;11.982;2022-12-07T15:00:19;5.65;;;1.60;;
54871;SDS011;43914;57.680;11.982;2022-12-07T15:02:47;7.17;;;2.05;;
54871;SDS011;43914;57.680;11.982;2022-12-07T15:05:14;5.67;;;1.40;;
54871;SDS011;43914;57.680;11.982;2022-12-07T15:07:41;8.83;;;1.80;;
54871;SDS011;43914;57.680;11.982;2022-12-07T15:10:19;6.97;;;1.62;;
54871;SDS011;43914;57.680;11.982;2022-12-07T15:12:45;6.58;;;1.60;;
54871;SDS011;43914;57.680;11.982;2022-12-07T15:15:11;8.35;;;1.82;;
54871;SDS011;43914;57.680;11.982;2022-12-07T15:17:38;6.85;;;1.80;;
54871;SDS011;43914;57.680;11.982;2022-12-07T15:20:05;7.00;;;1.80;;
54871;SDS011;43914;57.680;11.982;2022-12-07T15:22:35;8.25;;;2.22;;
54871;SDS011;43914;57.680;11.982;2022-12-07T15:25:01;7.10;;;2.10;;
54871;SDS011;43914;57.680;11.982;2022-12-07T15:27:29;6.65;;;1.87;;
54871;SDS011;43914;57.680;11.982;2022-12-07T15:29:55;9.18;;;2.30;;
54871;SDS011;43914;57.680;11.982;2022-12-07T15:32:21;7.80;;;2.00;;
54871;SDS011;43914;57.680;11.982;2022-12-07T15:34:48;9.65;;;2.12;;
54871;SDS011;43914;57.680;11.982;2022-12-07T15:37:15;6.87;;;1.80;;
54871;SDS011;43914;57.680;11.982;2022-12-07T15:39:41;7.75;;;1.85;;
54871;SDS011;43914;57.680;11.982;2022-12-07T15:42:07;7.42;;;1.92;;
54871;SDS011;43914;57.680;11.982;2022-12-07T15:44:33;8.93;;;2.07;;
54871;SDS011;43914;57.680;11.982;2022-12-07T15:47:01;8.68;;;1.92;;
54871;SDS011;43914;57.680;11.982;2022-12-07T15:49:27;7.42;;;2.30;;
54871;SDS011;43914;57.680;11.982;2022-12-07T15:51:53;11.28;;;2.42;;
54871;SDS011;43914;57.680;11.982;2022-12-07T15:54:21;8.30;;;2.30;;
54871;SDS011;43914;57.680;11.982;2022-12-07T15:56:52;9.75;;;2.00;;
54871;SDS011;43914;57.680;11.982;2022-12-07T15:59:19;9.18;;;2.20;;
54871;SDS011;43914;57.680;11.982;2022-12-07T16:01:45;10.15;;;2.62;;
54871;SDS011;43914;57.680;11.982;2022-12-07T16:04:11;8.95;;;1.98;;
54871;SDS011;43914;57.680;11.982;2022-12-07T16:06:37;7.80;;;2.00;;
54871;SDS011;43914;57.680;11.982;2022-12-07T16:09:04;10.65;;;2.00;;
54871;SDS011;43914;57.680;11.982;2022-12-07T16:11:31;9.20;;;1.87;;
54871;SDS011;43914;57.680;11.982;2022-12-07T16:13:58;9.45;;;2.20;;
54871;SDS011;43914;57.680;11.982;2022-12-07T16:16:24;7.95;;;2.10;;
54871;SDS011;43914;57.680;11.982;2022-12-07T16:18:51;6.33;;;1.90;;
54871;SDS011;43914;57.680;11.982;2022-12-07T16:21:17;10.53;;;2.33;;
54871;SDS011;43914;57.680;11.982;2022-12-07T16:23:44;9.33;;;1.90;;
54871;SDS011;43914;57.680;11.982;2022-12-07T16:26:11;8.60;;;2.05;;
54871;SDS011;43914;57.680;11.982;2022-12-07T16:28:41;7.97;;;1.85;;
54871;SDS011;43914;57.680;11.982;2022-12-07T16:31:08;7.95;;;2.20;;
54871;SDS011;43914;57.680;11.982;2022-12-07T16:33:38;7.55;;;1.72;;
54871;SDS011;43914;57.680;11.982;2022-12-07T16:36:06;9.95;;;2.42;;
54871;SDS011;43914;57.680;11.982;2022-12-07T16:38:34;8.00;;;2.25;;
54871;SDS011;43914;57.680;11.982;2022-12-07T16:41:02;9.48;;;2.55;;
54871;SDS011;43914;57.680;11.982;2022-12-07T16:43:30;8.95;;;2.20;;
54871;SDS011;43914;57.680;11.982;2022-12-07T16:45:56;8.57;;;2.43;;
54871;SDS011;43914;57.680;11.982;2022-12-07T16:48:22;9.47;;;2.70;;
54871;SDS011;43914;57.680;11.982;2022-12-07T16:50:51;7.42;;;2.40;;
54871;SDS011;43914;57.680;11.982;2022-12-07T16:53:18;7.65;;;2.52;;
54871;SDS011;43914;57.680;11.982;2022-12-07T16:55:46;8.33;;;2.50;;
54871;SDS011;43914;57.680;11.982;2022-12-07T16:58:15;8.23;;;2.20;;
54871;SDS011;43914;57.680;11.982;2022-12-07T17:00:42;8.25;;;2.33;;
54871;SDS011;43914;57.680;11.982;2022-12-07T17:03:09;8.73;;;2.80;;
54871;SDS011;43914;57.680;11.982;2022-12-07T17:05:41;8.58;;;2.40;;
54871;SDS011;43914;57.680;11.982;2022-12-07T17:08:07;6.17;;;2.00;;
54871;SDS011;43914;57.680;11.982;2022-12-07T17:10:39;8.98;;;2.40;;